sensor_id;sensor_type;location;lat;lon;timestamp;P1;durP1;ratioP1;P2;durP2;ratioP2
15385;SDS011;7791;47.246;9.648;2023-10-19T00:01:52;27.97;;;17.30;;
15385;SDS011;7791;47.246;9.648;2023-10-19T00:04:28;28.00;;;18.17;;
15385;SDS011;7791;47.246;9.648;2023-10-19T00:07:10;27.07;;;17.90;;
15385;SDS011;7791;47.246;9.648;2023-10-19T00:09:47;27.03;;;17.93;;
15385;SDS011;7791;47.246;9.648;2023-10-19T00:12:31;27.67;;;18.33;;
15385;SDS011;7791;47.246;9.648;2023-10-19T00:15:14;26.50;;;17.83;;
15385;SDS011;7791;47.246;9.648;2023-10-19T00:20:50;26.10;;;18.37;;
15385;SDS011;7791;47.246;9.648;2023-10-19T00:23:26;27.23;;;17.80;;
15385;SDS011;7791;47.246;9.648;2023-10-19T00:26:03;27.57;;;17.87;;
15385;SDS011;7791;47.246;9.648;2023-10-19T00:28:47;26.27;;;18.13;;
15385;SDS011;7791;47.246;9.648;2023-10-19T00:36:49;25.90;;;17.20;;
15385;SDS011;7791;47.246;9.648;2023-10-19T00:39:21;23.77;;;16.40;;
15385;SDS011;7791;47.246;9.648;2023-10-19T00:42:07;28.27;;;17.17;;
15385;SDS011;7791;47.246;9.648;2023-10-19T00:44:34;30.47;;;18.10;;
15385;SDS011;7791;47.246;9.648;2023-10-19T00:47:27;24.33;;;16.83;;
15385;SDS011;7791;47.246;9.648;2023-10-19T00:49:59;23.80;;;17.07;;
15385;SDS011;7791;47.246;9.648;2023-10-19T00:52:28;27.27;;;17.37;;
15385;SDS011;7791;47.246;9.648;2023-10-19T00:54:56;24.03;;;17.23;;
15385;SDS011;7791;47.246;9.648;2023-10-19T00:57:28;26.17;;;17.93;;
15385;SDS011;7791;47.246;9.648;2023-10-19T01:00:09;24.80;;;16.83;;
15385;SDS011;7791;47.246;9.648;2023-10-19T01:02:57;28.77;;;17.80;;
15385;SDS011;7791;47.246;9.648;2023-10-19T01:05:39;29.70;;;19.50;;
15385;SDS011;7791;47.246;9.648;2023-10-19T01:08:15;26.47;;;17.57;;
15385;SDS011;7791;47.246;9.648;2023-10-19T01:11:04;25.13;;;17.73;;
15385;SDS011;7791;47.246;9.648;2023-10-19T01:13:41;27.17;;;17.67;;
15385;SDS011;7791;47.246;9.648;2023-10-19T01:16:17;28.20;;;19.17;;
15385;SDS011;7791;47.246;9.648;2023-10-19T01:19:06;30.70;;;19.33;;
15385;SDS011;7791;47.246;9.648;2023-10-19T01:21:38;34.00;;;20.63;;
15385;SDS011;7791;47.246;9.648;2023-10-19T01:24:19;31.57;;;20.47;;
15385;SDS011;7791;47.246;9.648;2023-10-19T01:27:06;32.17;;;21.30;;
15385;SDS011;7791;47.246;9.648;2023-10-19T01:29:47;36.60;;;22.23;;
15385;SDS011;7791;47.246;9.648;2023-10-19T01:32:24;36.03;;;20.93;;
15385;SDS011;7791;47.246;9.648;2023-10-19T01:38:02;29.83;;;20.23;;
15385;SDS011;7791;47.246;9.648;2023-10-19T01:40:52;30.47;;;21.17;;
15385;SDS011;7791;47.246;9.648;2023-10-19T01:43:32;36.10;;;20.63;;
15385;SDS011;7791;47.246;9.648;2023-10-19T01:46:15;33.13;;;21.37;;
15385;SDS011;7791;47.246;9.648;2023-10-19T01:52:02;29.77;;;19.80;;
15385;SDS011;7791;47.246;9.648;2023-10-19T01:54:41;29.73;;;19.87;;
15385;SDS011;7791;47.246;9.648;2023-10-19T01:57:22;31.07;;;20.67;;
15385;SDS011;7791;47.246;9.648;2023-10-19T02:00:18;31.50;;;19.80;;
15385;SDS011;7791;47.246;9.648;2023-10-19T02:03:04;28.77;;;19.73;;
15385;SDS011;7791;47.246;9.648;2023-10-19T02:08:37;31.90;;;20.10;;
15385;SDS011;7791;47.246;9.648;2023-10-19T02:11:13;31.17;;;20.43;;
15385;SDS011;7791;47.246;9.648;2023-10-19T02:16:53;27.57;;;19.97;;
15385;SDS011;7791;47.246;9.648;2023-10-19T02:19:31;34.27;;;20.70;;
15385;SDS011;7791;47.246;9.648;2023-10-19T02:22:21;31.47;;;20.17;;
15385;SDS011;7791;47.246;9.648;2023-10-19T02:24:54;30.03;;;19.13;;
15385;SDS011;7791;47.246;9.648;2023-10-19T02:27:31;29.90;;;19.60;;
15385;SDS011;7791;47.246;9.648;2023-10-19T02:32:54;29.20;;;19.43;;
15385;SDS011;7791;47.246;9.648;2023-10-19T02:38:37;28.93;;;19.03;;
15385;SDS011;7791;47.246;9.648;2023-10-19T02:41:28;31.47;;;18.90;;
15385;SDS011;7791;47.246;9.648;2023-10-19T02:46:51;28.73;;;18.03;;
15385;SDS011;7791;47.246;9.648;2023-10-19T02:49:32;25.87;;;18.13;;
15385;SDS011;7791;47.246;9.648;2023-10-19T02:52:08;27.93;;;18.43;;
15385;SDS011;7791;47.246;9.648;2023-10-19T02:54:40;28.27;;;18.40;;
15385;SDS011;7791;47.246;9.648;2023-10-19T02:57:15;29.60;;;17.97;;
15385;SDS011;7791;47.246;9.648;2023-10-19T02:59:50;26.87;;;18.13;;
15385;SDS011;7791;47.246;9.648;2023-10-19T03:02:26;30.60;;;18.20;;
15385;SDS011;7791;47.246;9.648;2023-10-19T03:05:18;27.53;;;17.90;;
15385;SDS011;7791;47.246;9.648;2023-10-19T03:07:59;25.07;;;16.70;;
15385;SDS011;7791;47.246;9.648;2023-10-19T03:10:35;27.23;;;18.07;;
15385;SDS011;7791;47.246;9.648;2023-10-19T03:15:53;28.33;;;18.17;;
15385;SDS011;7791;47.246;9.648;2023-10-19T03:18:33;26.30;;;18.10;;
15385;SDS011;7791;47.246;9.648;2023-10-19T03:21:08;25.70;;;17.67;;
15385;SDS011;7791;47.246;9.648;2023-10-19T03:23:43;23.50;;;17.27;;
15385;SDS011;7791;47.246;9.648;2023-10-19T03:26:31;23.97;;;17.30;;
15385;SDS011;7791;47.246;9.648;2023-10-19T03:29:04;27.43;;;18.03;;
15385;SDS011;7791;47.246;9.648;2023-10-19T03:31:43;29.50;;;20.50;;
15385;SDS011;7791;47.246;9.648;2023-10-19T03:34:39;32.70;;;21.13;;
15385;SDS011;7791;47.246;9.648;2023-10-19T03:37:19;29.30;;;19.83;;
15385;SDS011;7791;47.246;9.648;2023-10-19T03:39:58;29.10;;;20.37;;
15385;SDS011;7791;47.246;9.648;2023-10-19T03:42:32;31.23;;;19.83;;
15385;SDS011;7791;47.246;9.648;2023-10-19T03:48:03;30.23;;;19.87;;
15385;SDS011;7791;47.246;9.648;2023-10-19T03:50:44;31.60;;;20.47;;
15385;SDS011;7791;47.246;9.648;2023-10-19T03:53:34;33.47;;;21.23;;
15385;SDS011;7791;47.246;9.648;2023-10-19T03:56:19;31.07;;;21.43;;
15385;SDS011;7791;47.246;9.648;2023-10-19T03:59:00;34.57;;;21.77;;
15385;SDS011;7791;47.246;9.648;2023-10-19T04:01:32;31.27;;;22.27;;
15385;SDS011;7791;47.246;9.648;2023-10-19T04:04:14;37.77;;;22.57;;
15385;SDS011;7791;47.246;9.648;2023-10-19T04:06:50;32.33;;;22.17;;
15385;SDS011;7791;47.246;9.648;2023-10-19T04:09:25;34.13;;;22.77;;
15385;SDS011;7791;47.246;9.648;2023-10-19T04:12:10;33.50;;;21.77;;
15385;SDS011;7791;47.246;9.648;2023-10-19T04:15:02;35.10;;;22.80;;
15385;SDS011;7791;47.246;9.648;2023-10-19T04:20:17;35.43;;;24.57;;
15385;SDS011;7791;47.246;9.648;2023-10-19T04:22:59;35.63;;;24.03;;
15385;SDS011;7791;47.246;9.648;2023-10-19T04:25:29;34.33;;;22.20;;
15385;SDS011;7791;47.246;9.648;2023-10-19T04:28:18;37.80;;;24.13;;
15385;SDS011;7791;47.246;9.648;2023-10-19T04:30:54;36.23;;;25.03;;
15385;SDS011;7791;47.246;9.648;2023-10-19T04:33:26;36.23;;;23.50;;
15385;SDS011;7791;47.246;9.648;2023-10-19T04:36:05;35.77;;;22.40;;
15385;SDS011;7791;47.246;9.648;2023-10-19T04:38:37;35.97;;;24.40;;
15385;SDS011;7791;47.246;9.648;2023-10-19T04:41:15;34.57;;;23.67;;
15385;SDS011;7791;47.246;9.648;2023-10-19T04:43:55;32.40;;;21.90;;
15385;SDS011;7791;47.246;9.648;2023-10-19T04:46:25;33.90;;;23.03;;
15385;SDS011;7791;47.246;9.648;2023-10-19T04:49:18;36.63;;;23.03;;
15385;SDS011;7791;47.246;9.648;2023-10-19T04:51:54;33.17;;;24.20;;
15385;SDS011;7791;47.246;9.648;2023-10-19T04:54:37;36.07;;;22.77;;
15385;SDS011;7791;47.246;9.648;2023-10-19T04:57:25;34.90;;;23.47;;
15385;SDS011;7791;47.246;9.648;2023-10-19T04:59:54;34.70;;;22.40;;
15385;SDS011;7791;47.246;9.648;2023-10-19T05:02:28;36.17;;;23.53;;
15385;SDS011;7791;47.246;9.648;2023-10-19T05:05:11;35.60;;;23.67;;
15385;SDS011;7791;47.246;9.648;2023-10-19T05:07:44;37.07;;;23.83;;
15385;SDS011;7791;47.246;9.648;2023-10-19T05:18:37;35.03;;;23.40;;
15385;SDS011;7791;47.246;9.648;2023-10-19T05:21:13;36.17;;;23.53;;
15385;SDS011;7791;47.246;9.648;2023-10-19T05:23:54;35.50;;;23.07;;
15385;SDS011;7791;47.246;9.648;2023-10-19T05:26:36;34.93;;;23.23;;
15385;SDS011;7791;47.246;9.648;2023-10-19T05:29:12;35.20;;;22.57;;
15385;SDS011;7791;47.246;9.648;2023-10-19T05:34:32;36.70;;;23.20;;
15385;SDS011;7791;47.246;9.648;2023-10-19T05:37:25;36.07;;;24.20;;
15385;SDS011;7791;47.246;9.648;2023-10-19T05:40:05;34.67;;;23.33;;
15385;SDS011;7791;47.246;9.648;2023-10-19T05:42:51;37.90;;;23.63;;
15385;SDS011;7791;47.246;9.648;2023-10-19T05:45:44;38.07;;;23.40;;
15385;SDS011;7791;47.246;9.648;2023-10-19T05:48:19;36.17;;;23.43;;
15385;SDS011;7791;47.246;9.648;2023-10-19T05:51:23;41.70;;;22.97;;
15385;SDS011;7791;47.246;9.648;2023-10-19T05:54:14;34.93;;;22.70;;
15385;SDS011;7791;47.246;9.648;2023-10-19T05:56:49;36.77;;;23.27;;
15385;SDS011;7791;47.246;9.648;2023-10-19T05:59:33;34.20;;;22.80;;
15385;SDS011;7791;47.246;9.648;2023-10-19T06:07:34;33.87;;;23.17;;
15385;SDS011;7791;47.246;9.648;2023-10-19T06:10:00;39.07;;;23.90;;
15385;SDS011;7791;47.246;9.648;2023-10-19T06:12:44;38.83;;;23.93;;
15385;SDS011;7791;47.246;9.648;2023-10-19T06:15:27;38.93;;;23.50;;
15385;SDS011;7791;47.246;9.648;2023-10-19T06:18:13;34.47;;;23.40;;
15385;SDS011;7791;47.246;9.648;2023-10-19T06:21:17;36.70;;;24.23;;
15385;SDS011;7791;47.246;9.648;2023-10-19T06:26:59;36.83;;;23.30;;
15385;SDS011;7791;47.246;9.648;2023-10-19T06:29:31;38.43;;;23.33;;
15385;SDS011;7791;47.246;9.648;2023-10-19T06:37:58;39.27;;;23.23;;
15385;SDS011;7791;47.246;9.648;2023-10-19T06:40:33;34.77;;;23.03;;
15385;SDS011;7791;47.246;9.648;2023-10-19T06:43:30;33.57;;;22.83;;
15385;SDS011;7791;47.246;9.648;2023-10-19T06:46:13;35.80;;;22.50;;
15385;SDS011;7791;47.246;9.648;2023-10-19T06:51:48;37.17;;;24.60;;
15385;SDS011;7791;47.246;9.648;2023-10-19T06:54:36;36.57;;;24.17;;
15385;SDS011;7791;47.246;9.648;2023-10-19T06:57:28;34.77;;;23.77;;
15385;SDS011;7791;47.246;9.648;2023-10-19T06:59:58;35.20;;;24.50;;
15385;SDS011;7791;47.246;9.648;2023-10-19T07:02:39;36.17;;;23.90;;
15385;SDS011;7791;47.246;9.648;2023-10-19T07:05:28;32.97;;;21.57;;
15385;SDS011;7791;47.246;9.648;2023-10-19T07:08:20;35.10;;;23.23;;
15385;SDS011;7791;47.246;9.648;2023-10-19T07:13:55;29.70;;;20.90;;
15385;SDS011;7791;47.246;9.648;2023-10-19T07:19:22;29.97;;;21.17;;
15385;SDS011;7791;47.246;9.648;2023-10-19T07:22:10;28.63;;;19.63;;
15385;SDS011;7791;47.246;9.648;2023-10-19T07:25:09;31.97;;;21.50;;
15385;SDS011;7791;47.246;9.648;2023-10-19T07:28:01;26.03;;;18.20;;
15385;SDS011;7791;47.246;9.648;2023-10-19T07:30:44;27.87;;;18.83;;
15385;SDS011;7791;47.246;9.648;2023-10-19T07:33:16;28.77;;;18.30;;
15385;SDS011;7791;47.246;9.648;2023-10-19T07:35:57;25.03;;;16.80;;
15385;SDS011;7791;47.246;9.648;2023-10-19T07:38:42;25.07;;;16.90;;
15385;SDS011;7791;47.246;9.648;2023-10-19T07:41:24;21.03;;;14.90;;
15385;SDS011;7791;47.246;9.648;2023-10-19T07:44:08;25.03;;;16.50;;
15385;SDS011;7791;47.246;9.648;2023-10-19T07:46:52;24.37;;;15.77;;
15385;SDS011;7791;47.246;9.648;2023-10-19T07:49:35;23.63;;;15.30;;
15385;SDS011;7791;47.246;9.648;2023-10-19T07:52:05;20.00;;;14.63;;
15385;SDS011;7791;47.246;9.648;2023-10-19T07:54:49;20.80;;;15.77;;
15385;SDS011;7791;47.246;9.648;2023-10-19T08:00:31;21.27;;;15.13;;
15385;SDS011;7791;47.246;9.648;2023-10-19T08:03:29;32.63;;;18.67;;
15385;SDS011;7791;47.246;9.648;2023-10-19T08:06:04;26.77;;;16.10;;
15385;SDS011;7791;47.246;9.648;2023-10-19T08:08:38;21.53;;;15.07;;
15385;SDS011;7791;47.246;9.648;2023-10-19T08:11:38;21.00;;;14.70;;
15385;SDS011;7791;47.246;9.648;2023-10-19T08:14:14;24.57;;;15.50;;
15385;SDS011;7791;47.246;9.648;2023-10-19T08:16:50;22.57;;;14.83;;
15385;SDS011;7791;47.246;9.648;2023-10-19T08:22:12;86.10;;;29.27;;
15385;SDS011;7791;47.246;9.648;2023-10-19T08:24:38;27.83;;;16.10;;
15385;SDS011;7791;47.246;9.648;2023-10-19T08:27:06;22.97;;;15.43;;
15385;SDS011;7791;47.246;9.648;2023-10-19T08:29:44;20.27;;;13.87;;
15385;SDS011;7791;47.246;9.648;2023-10-19T08:32:26;19.13;;;13.80;;
15385;SDS011;7791;47.246;9.648;2023-10-19T08:35:01;20.23;;;13.80;;
15385;SDS011;7791;47.246;9.648;2023-10-19T08:37:31;22.03;;;13.90;;
15385;SDS011;7791;47.246;9.648;2023-10-19T08:40:12;21.00;;;13.83;;
15385;SDS011;7791;47.246;9.648;2023-10-19T08:42:58;20.73;;;13.50;;
15385;SDS011;7791;47.246;9.648;2023-10-19T08:45:41;19.63;;;13.30;;
15385;SDS011;7791;47.246;9.648;2023-10-19T08:48:33;20.57;;;13.40;;
15385;SDS011;7791;47.246;9.648;2023-10-19T08:51:13;15.40;;;11.83;;
15385;SDS011;7791;47.246;9.648;2023-10-19T08:59:27;19.60;;;13.10;;
15385;SDS011;7791;47.246;9.648;2023-10-19T09:02:14;22.87;;;13.07;;
15385;SDS011;7791;47.246;9.648;2023-10-19T09:05:10;17.20;;;10.70;;
15385;SDS011;7791;47.246;9.648;2023-10-19T09:07:42;17.37;;;10.10;;
15385;SDS011;7791;47.246;9.648;2023-10-19T09:10:25;15.87;;;10.57;;
15385;SDS011;7791;47.246;9.648;2023-10-19T09:13:18;16.33;;;10.30;;
15385;SDS011;7791;47.246;9.648;2023-10-19T09:18:58;13.00;;;8.60;;
15385;SDS011;7791;47.246;9.648;2023-10-19T09:21:32;12.87;;;9.33;;
15385;SDS011;7791;47.246;9.648;2023-10-19T09:24:15;13.23;;;8.87;;
15385;SDS011;7791;47.246;9.648;2023-10-19T09:26:47;11.83;;;8.43;;
15385;SDS011;7791;47.246;9.648;2023-10-19T09:29:30;15.53;;;9.27;;
15385;SDS011;7791;47.246;9.648;2023-10-19T09:32:00;16.27;;;8.57;;
15385;SDS011;7791;47.246;9.648;2023-10-19T09:34:56;10.20;;;7.70;;
15385;SDS011;7791;47.246;9.648;2023-10-19T09:37:41;11.67;;;7.70;;
15385;SDS011;7791;47.246;9.648;2023-10-19T09:40:18;12.73;;;8.03;;
15385;SDS011;7791;47.246;9.648;2023-10-19T09:42:52;12.20;;;8.40;;
15385;SDS011;7791;47.246;9.648;2023-10-19T09:45:30;15.50;;;7.77;;
15385;SDS011;7791;47.246;9.648;2023-10-19T09:48:15;10.47;;;7.00;;
15385;SDS011;7791;47.246;9.648;2023-10-19T09:50:53;14.80;;;6.73;;
15385;SDS011;7791;47.246;9.648;2023-10-19T09:53:36;9.77;;;6.03;;
15385;SDS011;7791;47.246;9.648;2023-10-19T09:56:36;8.80;;;5.40;;
15385;SDS011;7791;47.246;9.648;2023-10-19T09:59:22;9.07;;;5.73;;
15385;SDS011;7791;47.246;9.648;2023-10-19T10:02:10;8.90;;;5.80;;
15385;SDS011;7791;47.246;9.648;2023-10-19T10:04:49;9.13;;;5.03;;
15385;SDS011;7791;47.246;9.648;2023-10-19T10:07:31;7.83;;;5.30;;
15385;SDS011;7791;47.246;9.648;2023-10-19T10:10:05;7.50;;;5.80;;
15385;SDS011;7791;47.246;9.648;2023-10-19T10:12:37;11.97;;;6.90;;
15385;SDS011;7791;47.246;9.648;2023-10-19T10:15:10;12.87;;;8.27;;
15385;SDS011;7791;47.246;9.648;2023-10-19T10:18:11;14.43;;;8.63;;
15385;SDS011;7791;47.246;9.648;2023-10-19T10:20:55;12.67;;;7.90;;
15385;SDS011;7791;47.246;9.648;2023-10-19T10:23:52;12.57;;;9.17;;
15385;SDS011;7791;47.246;9.648;2023-10-19T10:32:52;11.80;;;7.97;;
15385;SDS011;7791;47.246;9.648;2023-10-19T10:38:50;10.60;;;7.20;;
15385;SDS011;7791;47.246;9.648;2023-10-19T10:41:45;13.63;;;7.33;;
15385;SDS011;7791;47.246;9.648;2023-10-19T10:44:34;17.13;;;8.33;;
15385;SDS011;7791;47.246;9.648;2023-10-19T10:47:12;14.90;;;7.07;;
15385;SDS011;7791;47.246;9.648;2023-10-19T10:52:58;27.92;;;12.25;;
15385;SDS011;7791;47.246;9.648;2023-10-19T10:55:29;16.38;;;7.28;;
15385;SDS011;7791;47.246;9.648;2023-10-19T10:57:55;24.45;;;9.95;;
15385;SDS011;7791;47.246;9.648;2023-10-19T11:00:25;57.22;;;20.40;;
15385;SDS011;7791;47.246;9.648;2023-10-19T11:08:38;8.18;;;6.00;;
15385;SDS011;7791;47.246;9.648;2023-10-19T11:11:36;7.40;;;5.80;;
15385;SDS011;7791;47.246;9.648;2023-10-19T11:14:19;10.03;;;6.40;;
15385;SDS011;7791;47.246;9.648;2023-10-19T11:17:24;10.33;;;6.80;;
15385;SDS011;7791;47.246;9.648;2023-10-19T11:20:20;11.30;;;7.80;;
15385;SDS011;7791;47.246;9.648;2023-10-19T11:23:13;10.27;;;8.53;;
15385;SDS011;7791;47.246;9.648;2023-10-19T11:25:57;11.47;;;8.83;;
15385;SDS011;7791;47.246;9.648;2023-10-19T11:28:30;14.47;;;9.00;;
15385;SDS011;7791;47.246;9.648;2023-10-19T11:31:22;12.30;;;8.80;;
15385;SDS011;7791;47.246;9.648;2023-10-19T11:33:57;11.33;;;8.43;;
15385;SDS011;7791;47.246;9.648;2023-10-19T11:36:34;13.93;;;8.87;;
15385;SDS011;7791;47.246;9.648;2023-10-19T11:39:07;14.10;;;9.17;;
15385;SDS011;7791;47.246;9.648;2023-10-19T11:44:34;14.17;;;9.47;;
15385;SDS011;7791;47.246;9.648;2023-10-19T11:47:16;15.00;;;10.13;;
15385;SDS011;7791;47.246;9.648;2023-10-19T11:50:00;45.27;;;20.80;;
15385;SDS011;7791;47.246;9.648;2023-10-19T11:52:45;36.40;;;21.27;;
15385;SDS011;7791;47.246;9.648;2023-10-19T11:55:20;28.87;;;17.43;;
15385;SDS011;7791;47.246;9.648;2023-10-19T11:57:58;22.33;;;15.83;;
15385;SDS011;7791;47.246;9.648;2023-10-19T12:00:38;25.77;;;18.03;;
15385;SDS011;7791;47.246;9.648;2023-10-19T12:03:19;21.70;;;14.77;;
15385;SDS011;7791;47.246;9.648;2023-10-19T12:06:05;25.67;;;17.00;;
15385;SDS011;7791;47.246;9.648;2023-10-19T12:08:45;16.10;;;11.50;;
15385;SDS011;7791;47.246;9.648;2023-10-19T12:11:25;14.73;;;12.07;;
15385;SDS011;7791;47.246;9.648;2023-10-19T12:14:04;14.63;;;11.83;;
15385;SDS011;7791;47.246;9.648;2023-10-19T12:16:42;18.53;;;13.53;;
15385;SDS011;7791;47.246;9.648;2023-10-19T12:19:27;18.70;;;12.93;;
15385;SDS011;7791;47.246;9.648;2023-10-19T12:22:15;32.83;;;21.50;;
15385;SDS011;7791;47.246;9.648;2023-10-19T12:30:31;65.97;;;33.63;;
15385;SDS011;7791;47.246;9.648;2023-10-19T12:33:30;43.47;;;24.33;;
15385;SDS011;7791;47.246;9.648;2023-10-19T12:36:37;29.17;;;17.23;;
15385;SDS011;7791;47.246;9.648;2023-10-19T12:39:20;17.17;;;11.70;;
15385;SDS011;7791;47.246;9.648;2023-10-19T12:42:11;15.70;;;12.03;;
15385;SDS011;7791;47.246;9.648;2023-10-19T12:44:45;15.63;;;12.17;;
15385;SDS011;7791;47.246;9.648;2023-10-19T12:47:17;42.07;;;23.27;;
15385;SDS011;7791;47.246;9.648;2023-10-19T12:50:11;29.27;;;18.20;;
15385;SDS011;7791;47.246;9.648;2023-10-19T12:52:42;18.47;;;11.60;;
15385;SDS011;7791;47.246;9.648;2023-10-19T12:55:39;16.97;;;11.03;;
15385;SDS011;7791;47.246;9.648;2023-10-19T12:58:15;15.03;;;11.13;;
15385;SDS011;7791;47.246;9.648;2023-10-19T13:00:54;25.77;;;16.27;;
15385;SDS011;7791;47.246;9.648;2023-10-19T13:03:32;13.77;;;10.57;;
15385;SDS011;7791;47.246;9.648;2023-10-19T13:06:25;14.03;;;10.67;;
15385;SDS011;7791;47.246;9.648;2023-10-19T13:08:56;15.50;;;11.10;;
15385;SDS011;7791;47.246;9.648;2023-10-19T13:11:32;14.27;;;11.23;;
15385;SDS011;7791;47.246;9.648;2023-10-19T13:13:58;16.10;;;11.97;;
15385;SDS011;7791;47.246;9.648;2023-10-19T13:16:35;12.97;;;10.70;;
15385;SDS011;7791;47.246;9.648;2023-10-19T13:19:18;18.60;;;11.23;;
15385;SDS011;7791;47.246;9.648;2023-10-19T13:22:15;15.50;;;10.70;;
15385;SDS011;7791;47.246;9.648;2023-10-19T13:24:56;16.30;;;10.90;;
15385;SDS011;7791;47.246;9.648;2023-10-19T13:27:41;16.13;;;10.60;;
15385;SDS011;7791;47.246;9.648;2023-10-19T13:30:15;16.13;;;9.57;;
15385;SDS011;7791;47.246;9.648;2023-10-19T13:38:14;14.70;;;8.33;;
15385;SDS011;7791;47.246;9.648;2023-10-19T13:41:04;10.27;;;7.07;;
15385;SDS011;7791;47.246;9.648;2023-10-19T13:46:54;9.20;;;6.27;;
15385;SDS011;7791;47.246;9.648;2023-10-19T13:52:27;11.77;;;5.70;;
15385;SDS011;7791;47.246;9.648;2023-10-19T13:55:11;14.40;;;5.87;;
15385;SDS011;7791;47.246;9.648;2023-10-19T13:57:41;6.43;;;4.93;;
15385;SDS011;7791;47.246;9.648;2023-10-19T14:00:17;10.63;;;5.90;;
15385;SDS011;7791;47.246;9.648;2023-10-19T14:02:57;9.87;;;5.30;;
15385;SDS011;7791;47.246;9.648;2023-10-19T14:05:35;7.67;;;5.70;;
15385;SDS011;7791;47.246;9.648;2023-10-19T14:08:14;8.23;;;5.13;;
15385;SDS011;7791;47.246;9.648;2023-10-19T14:10:47;10.17;;;5.83;;
15385;SDS011;7791;47.246;9.648;2023-10-19T14:13:40;10.20;;;5.57;;
15385;SDS011;7791;47.246;9.648;2023-10-19T14:16:15;9.23;;;6.00;;
15385;SDS011;7791;47.246;9.648;2023-10-19T14:18:54;7.87;;;5.73;;
15385;SDS011;7791;47.246;9.648;2023-10-19T14:21:26;8.77;;;6.30;;
15385;SDS011;7791;47.246;9.648;2023-10-19T14:23:51;9.40;;;6.33;;
15385;SDS011;7791;47.246;9.648;2023-10-19T14:26:19;10.80;;;6.30;;
15385;SDS011;7791;47.246;9.648;2023-10-19T14:29:19;9.57;;;5.60;;
15385;SDS011;7791;47.246;9.648;2023-10-19T14:31:49;10.07;;;5.77;;
15385;SDS011;7791;47.246;9.648;2023-10-19T14:34:25;8.70;;;5.73;;
15385;SDS011;7791;47.246;9.648;2023-10-19T14:37:02;8.77;;;6.37;;
15385;SDS011;7791;47.246;9.648;2023-10-19T14:39:35;11.53;;;6.43;;
15385;SDS011;7791;47.246;9.648;2023-10-19T14:42:22;13.03;;;8.83;;
15385;SDS011;7791;47.246;9.648;2023-10-19T14:45:10;10.13;;;7.00;;
15385;SDS011;7791;47.246;9.648;2023-10-19T14:47:59;10.30;;;6.60;;
15385;SDS011;7791;47.246;9.648;2023-10-19T14:50:35;11.20;;;7.33;;
15385;SDS011;7791;47.246;9.648;2023-10-19T14:53:22;11.60;;;6.70;;
15385;SDS011;7791;47.246;9.648;2023-10-19T14:56:18;7.63;;;5.77;;
15385;SDS011;7791;47.246;9.648;2023-10-19T14:59:04;10.20;;;6.10;;
15385;SDS011;7791;47.246;9.648;2023-10-19T15:01:35;8.17;;;5.33;;
15385;SDS011;7791;47.246;9.648;2023-10-19T15:04:13;9.20;;;6.23;;
15385;SDS011;7791;47.246;9.648;2023-10-19T15:06:48;13.17;;;6.80;;
15385;SDS011;7791;47.246;9.648;2023-10-19T15:09:33;13.10;;;6.97;;
15385;SDS011;7791;47.246;9.648;2023-10-19T15:15:24;11.10;;;6.13;;
15385;SDS011;7791;47.246;9.648;2023-10-19T15:18:02;9.73;;;6.43;;
15385;SDS011;7791;47.246;9.648;2023-10-19T15:20:57;10.37;;;7.27;;
15385;SDS011;7791;47.246;9.648;2023-10-19T15:23:54;11.17;;;7.30;;
15385;SDS011;7791;47.246;9.648;2023-10-19T15:26:42;16.03;;;8.33;;
15385;SDS011;7791;47.246;9.648;2023-10-19T15:29:20;13.83;;;7.37;;
15385;SDS011;7791;47.246;9.648;2023-10-19T15:31:58;13.20;;;6.83;;
15385;SDS011;7791;47.246;9.648;2023-10-19T15:34:43;13.83;;;7.27;;
15385;SDS011;7791;47.246;9.648;2023-10-19T15:37:21;15.13;;;7.67;;
15385;SDS011;7791;47.246;9.648;2023-10-19T15:39:57;14.10;;;6.93;;
15385;SDS011;7791;47.246;9.648;2023-10-19T15:45:13;11.50;;;6.87;;
15385;SDS011;7791;47.246;9.648;2023-10-19T15:50:36;14.97;;;9.10;;
15385;SDS011;7791;47.246;9.648;2023-10-19T15:53:05;17.50;;;9.57;;
15385;SDS011;7791;47.246;9.648;2023-10-19T15:55:48;14.87;;;9.00;;
15385;SDS011;7791;47.246;9.648;2023-10-19T16:01:35;11.83;;;8.07;;
15385;SDS011;7791;47.246;9.648;2023-10-19T16:04:09;11.67;;;7.33;;
15385;SDS011;7791;47.246;9.648;2023-10-19T16:07:00;12.60;;;6.70;;
15385;SDS011;7791;47.246;9.648;2023-10-19T16:09:34;11.53;;;6.13;;
15385;SDS011;7791;47.246;9.648;2023-10-19T16:15:05;13.07;;;7.03;;
15385;SDS011;7791;47.246;9.648;2023-10-19T16:17:44;13.50;;;6.73;;
15385;SDS011;7791;47.246;9.648;2023-10-19T16:20:16;13.63;;;6.97;;
15385;SDS011;7791;47.246;9.648;2023-10-19T16:22:51;12.50;;;6.90;;
15385;SDS011;7791;47.246;9.648;2023-10-19T16:25:39;14.57;;;6.90;;
15385;SDS011;7791;47.246;9.648;2023-10-19T16:28:10;11.70;;;6.30;;
15385;SDS011;7791;47.246;9.648;2023-10-19T16:31:06;11.63;;;7.13;;
15385;SDS011;7791;47.246;9.648;2023-10-19T16:36:58;13.07;;;8.80;;
15385;SDS011;7791;47.246;9.648;2023-10-19T16:39:31;14.43;;;7.93;;
15385;SDS011;7791;47.246;9.648;2023-10-19T16:45:04;19.17;;;10.67;;
15385;SDS011;7791;47.246;9.648;2023-10-19T16:47:45;17.80;;;9.43;;
15385;SDS011;7791;47.246;9.648;2023-10-19T16:53:35;15.03;;;9.20;;
15385;SDS011;7791;47.246;9.648;2023-10-19T16:56:14;17.57;;;10.10;;
15385;SDS011;7791;47.246;9.648;2023-10-19T17:01:39;15.40;;;9.60;;
15385;SDS011;7791;47.246;9.648;2023-10-19T17:04:30;15.27;;;9.57;;
15385;SDS011;7791;47.246;9.648;2023-10-19T17:07:17;15.27;;;10.17;;
15385;SDS011;7791;47.246;9.648;2023-10-19T17:09:48;12.67;;;8.83;;
15385;SDS011;7791;47.246;9.648;2023-10-19T17:12:28;12.93;;;9.07;;
15385;SDS011;7791;47.246;9.648;2023-10-19T17:15:15;29.90;;;11.50;;
15385;SDS011;7791;47.246;9.648;2023-10-19T17:17:57;19.87;;;10.50;;
15385;SDS011;7791;47.246;9.648;2023-10-19T17:20:28;14.43;;;8.57;;
15385;SDS011;7791;47.246;9.648;2023-10-19T17:25:55;15.37;;;8.37;;
15385;SDS011;7791;47.246;9.648;2023-10-19T17:28:39;15.37;;;9.33;;
15385;SDS011;7791;47.246;9.648;2023-10-19T17:31:26;12.00;;;8.67;;
15385;SDS011;7791;47.246;9.648;2023-10-19T17:34:13;13.60;;;8.87;;
15385;SDS011;7791;47.246;9.648;2023-10-19T17:36:49;14.53;;;9.47;;
15385;SDS011;7791;47.246;9.648;2023-10-19T17:39:24;18.10;;;9.60;;
15385;SDS011;7791;47.246;9.648;2023-10-19T17:41:58;15.07;;;8.73;;
15385;SDS011;7791;47.246;9.648;2023-10-19T17:44:55;18.27;;;8.80;;
15385;SDS011;7791;47.246;9.648;2023-10-19T17:47:24;14.20;;;8.93;;
15385;SDS011;7791;47.246;9.648;2023-10-19T17:50:01;11.17;;;7.03;;
15385;SDS011;7791;47.246;9.648;2023-10-19T17:52:32;11.60;;;6.50;;
15385;SDS011;7791;47.246;9.648;2023-10-19T17:58:17;10.57;;;6.27;;
15385;SDS011;7791;47.246;9.648;2023-10-19T18:01:04;12.87;;;6.37;;
15385;SDS011;7791;47.246;9.648;2023-10-19T18:03:47;10.33;;;6.20;;
15385;SDS011;7791;47.246;9.648;2023-10-19T18:06:22;9.60;;;6.17;;
15385;SDS011;7791;47.246;9.648;2023-10-19T18:09:06;12.67;;;7.07;;
15385;SDS011;7791;47.246;9.648;2023-10-19T18:11:53;14.13;;;7.90;;
15385;SDS011;7791;47.246;9.648;2023-10-19T18:17:24;10.87;;;6.13;;
15385;SDS011;7791;47.246;9.648;2023-10-19T18:20:03;13.00;;;6.73;;
15385;SDS011;7791;47.246;9.648;2023-10-19T18:22:56;9.77;;;6.13;;
15385;SDS011;7791;47.246;9.648;2023-10-19T18:25:38;13.83;;;7.50;;
15385;SDS011;7791;47.246;9.648;2023-10-19T18:31:02;12.13;;;7.27;;
15385;SDS011;7791;47.246;9.648;2023-10-19T18:36:26;10.90;;;6.10;;
15385;SDS011;7791;47.246;9.648;2023-10-19T18:39:20;10.30;;;6.40;;
15385;SDS011;7791;47.246;9.648;2023-10-19T18:42:03;9.57;;;6.70;;
15385;SDS011;7791;47.246;9.648;2023-10-19T18:44:49;8.53;;;4.90;;
15385;SDS011;7791;47.246;9.648;2023-10-19T18:47:34;10.27;;;5.13;;